sensor_id;sensor_type;location;lat;lon;timestamp;P1;durP1;ratioP1;P2;durP2;ratioP2
35223;SDS011;21367;51.930;8.112;2022-07-29T00:02:47;6.63;;;1.30;;
35223;SDS011;21367;51.930;8.112;2022-07-29T00:07:51;11.35;;;1.30;;
35223;SDS011;21367;51.930;8.112;2022-07-29T00:12:57;12.30;;;1.42;;
35223;SDS011;21367;51.930;8.112;2022-07-29T00:18:01;5.13;;;1.13;;
35223;SDS011;21367;51.930;8.112;2022-07-29T00:23:05;6.25;;;1.10;;
35223;SDS011;21367;51.930;8.112;2022-07-29T00:28:11;6.22;;;1.40;;
35223;SDS011;21367;51.930;8.112;2022-07-29T00:33:15;9.45;;;1.40;;
35223;SDS011;21367;51.930;8.112;2022-07-29T00:38:19;14.90;;;1.67;;
35223;SDS011;21367;51.930;8.112;2022-07-29T00:43:25;13.13;;;1.25;;
35223;SDS011;21367;51.930;8.112;2022-07-29T00:53:32;5.25;;;1.40;;
35223;SDS011;21367;51.930;8.112;2022-07-29T00:58:41;11.63;;;1.45;;
35223;SDS011;21367;51.930;8.112;2022-07-29T01:03:46;5.20;;;1.30;;
35223;SDS011;21367;51.930;8.112;2022-07-29T01:08:50;10.02;;;1.10;;
35223;SDS011;21367;51.930;8.112;2022-07-29T01:13:57;6.55;;;1.10;;
35223;SDS011;21367;51.930;8.112;2022-07-29T01:19:03;8.82;;;1.40;;
35223;SDS011;21367;51.930;8.112;2022-07-29T01:29:46;7.35;;;1.45;;
35223;SDS011;21367;51.930;8.112;2022-07-29T01:34:53;7.85;;;1.33;;
35223;SDS011;21367;51.930;8.112;2022-07-29T01:39:59;7.07;;;1.27;;
35223;SDS011;21367;51.930;8.112;2022-07-29T01:45:10;9.95;;;1.33;;
35223;SDS011;21367;51.930;8.112;2022-07-29T01:50:18;5.07;;;1.20;;
35223;SDS011;21367;51.930;8.112;2022-07-29T01:55:24;7.13;;;1.52;;
35223;SDS011;21367;51.930;8.112;2022-07-29T02:00:37;9.68;;;1.50;;
35223;SDS011;21367;51.930;8.112;2022-07-29T02:05:44;9.88;;;1.65;;
35223;SDS011;21367;51.930;8.112;2022-07-29T02:10:49;12.27;;;1.50;;
35223;SDS011;21367;51.930;8.112;2022-07-29T02:15:58;7.95;;;1.55;;
35223;SDS011;21367;51.930;8.112;2022-07-29T02:21:03;10.30;;;1.70;;
35223;SDS011;21367;51.930;8.112;2022-07-29T02:26:07;10.93;;;1.63;;
35223;SDS011;21367;51.930;8.112;2022-07-29T02:31:15;7.60;;;2.20;;
35223;SDS011;21367;51.930;8.112;2022-07-29T02:36:22;7.47;;;1.40;;
35223;SDS011;21367;51.930;8.112;2022-07-29T02:41:28;8.02;;;1.45;;
35223;SDS011;21367;51.930;8.112;2022-07-29T02:46:37;12.60;;;1.30;;
35223;SDS011;21367;51.930;8.112;2022-07-29T02:51:54;10.50;;;1.67;;
35223;SDS011;21367;51.930;8.112;2022-07-29T02:57:03;12.18;;;1.45;;
35223;SDS011;21367;51.930;8.112;2022-07-29T03:02:14;8.30;;;1.60;;
35223;SDS011;21367;51.930;8.112;2022-07-29T03:07:19;9.60;;;1.50;;
35223;SDS011;21367;51.930;8.112;2022-07-29T03:12:24;5.93;;;1.40;;
35223;SDS011;21367;51.930;8.112;2022-07-29T03:17:31;10.55;;;1.63;;
35223;SDS011;21367;51.930;8.112;2022-07-29T03:22:38;5.50;;;1.48;;
35223;SDS011;21367;51.930;8.112;2022-07-29T03:27:44;14.73;;;2.58;;
35223;SDS011;21367;51.930;8.112;2022-07-29T03:32:52;9.50;;;1.80;;
35223;SDS011;21367;51.930;8.112;2022-07-29T03:37:56;11.70;;;2.00;;
35223;SDS011;21367;51.930;8.112;2022-07-29T03:42:59;6.47;;;1.60;;
35223;SDS011;21367;51.930;8.112;2022-07-29T03:48:08;5.27;;;1.80;;
35223;SDS011;21367;51.930;8.112;2022-07-29T03:53:15;7.55;;;1.63;;
35223;SDS011;21367;51.930;8.112;2022-07-29T03:58:19;7.80;;;1.50;;
35223;SDS011;21367;51.930;8.112;2022-07-29T04:03:26;11.27;;;1.80;;
35223;SDS011;21367;51.930;8.112;2022-07-29T04:08:30;11.77;;;1.80;;
35223;SDS011;21367;51.930;8.112;2022-07-29T04:13:34;20.05;;;2.30;;
35223;SDS011;21367;51.930;8.112;2022-07-29T04:18:41;7.32;;;1.65;;
35223;SDS011;21367;51.930;8.112;2022-07-29T04:23:45;7.25;;;1.52;;
35223;SDS011;21367;51.930;8.112;2022-07-29T04:28:50;6.88;;;1.60;;
35223;SDS011;21367;51.930;8.112;2022-07-29T04:33:56;13.35;;;2.30;;
35223;SDS011;21367;51.930;8.112;2022-07-29T04:44:04;10.52;;;2.10;;
35223;SDS011;21367;51.930;8.112;2022-07-29T04:49:10;13.93;;;1.60;;
35223;SDS011;21367;51.930;8.112;2022-07-29T04:59:17;13.68;;;1.55;;
35223;SDS011;21367;51.930;8.112;2022-07-29T05:04:23;9.90;;;1.80;;
35223;SDS011;21367;51.930;8.112;2022-07-29T05:09:27;13.63;;;1.85;;
35223;SDS011;21367;51.930;8.112;2022-07-29T05:14:32;19.17;;;2.10;;
35223;SDS011;21367;51.930;8.112;2022-07-29T05:19:39;11.13;;;1.52;;
35223;SDS011;21367;51.930;8.112;2022-07-29T05:24:43;6.47;;;1.50;;
35223;SDS011;21367;51.930;8.112;2022-07-29T05:29:46;12.10;;;1.77;;
35223;SDS011;21367;51.930;8.112;2022-07-29T05:34:53;12.05;;;1.75;;
35223;SDS011;21367;51.930;8.112;2022-07-29T05:39:57;9.35;;;1.75;;
35223;SDS011;21367;51.930;8.112;2022-07-29T05:45:00;6.60;;;1.73;;
35223;SDS011;21367;51.930;8.112;2022-07-29T05:50:08;7.75;;;1.77;;
35223;SDS011;21367;51.930;8.112;2022-07-29T05:55:12;14.00;;;2.08;;
35223;SDS011;21367;51.930;8.112;2022-07-29T06:00:16;10.68;;;1.60;;
35223;SDS011;21367;51.930;8.112;2022-07-29T06:05:23;11.93;;;2.00;;
35223;SDS011;21367;51.930;8.112;2022-07-29T06:10:27;11.85;;;1.95;;
35223;SDS011;21367;51.930;8.112;2022-07-29T06:15:31;7.68;;;1.58;;
35223;SDS011;21367;51.930;8.112;2022-07-29T06:20:37;11.25;;;1.85;;
35223;SDS011;21367;51.930;8.112;2022-07-29T06:25:41;12.18;;;1.80;;
35223;SDS011;21367;51.930;8.112;2022-07-29T06:30:45;8.48;;;1.80;;
35223;SDS011;21367;51.930;8.112;2022-07-29T06:35:51;8.88;;;1.60;;
35223;SDS011;21367;51.930;8.112;2022-07-29T06:40:55;13.35;;;2.10;;
35223;SDS011;21367;51.930;8.112;2022-07-29T06:46:07;10.88;;;1.40;;
35223;SDS011;21367;51.930;8.112;2022-07-29T06:51:14;12.07;;;2.22;;
35223;SDS011;21367;51.930;8.112;2022-07-29T06:56:18;9.00;;;2.33;;
35223;SDS011;21367;51.930;8.112;2022-07-29T07:01:22;8.50;;;1.50;;
35223;SDS011;21367;51.930;8.112;2022-07-29T07:06:28;14.18;;;1.95;;
35223;SDS011;21367;51.930;8.112;2022-07-29T07:11:32;11.27;;;2.00;;
35223;SDS011;21367;51.930;8.112;2022-07-29T07:16:36;6.18;;;1.73;;
35223;SDS011;21367;51.930;8.112;2022-07-29T07:21:43;7.68;;;1.88;;
35223;SDS011;21367;51.930;8.112;2022-07-29T07:26:47;10.98;;;1.70;;
35223;SDS011;21367;51.930;8.112;2022-07-29T07:31:51;14.25;;;1.70;;
35223;SDS011;21367;51.930;8.112;2022-07-29T07:36:58;5.20;;;1.73;;
35223;SDS011;21367;51.930;8.112;2022-07-29T07:42:02;8.52;;;1.90;;
35223;SDS011;21367;51.930;8.112;2022-07-29T07:47:06;8.40;;;1.52;;
35223;SDS011;21367;51.930;8.112;2022-07-29T07:52:12;7.05;;;1.70;;
35223;SDS011;21367;51.930;8.112;2022-07-29T07:57:16;8.25;;;1.25;;
35223;SDS011;21367;51.930;8.112;2022-07-29T08:02:20;8.52;;;1.60;;
35223;SDS011;21367;51.930;8.112;2022-07-29T08:07:27;8.60;;;1.88;;
35223;SDS011;21367;51.930;8.112;2022-07-29T08:12:30;8.27;;;1.80;;
35223;SDS011;21367;51.930;8.112;2022-07-29T08:17:34;18.70;;;1.83;;
35223;SDS011;21367;51.930;8.112;2022-07-29T08:22:41;12.75;;;1.70;;
35223;SDS011;21367;51.930;8.112;2022-07-29T08:27:44;12.15;;;2.08;;
35223;SDS011;21367;51.930;8.112;2022-07-29T08:32:48;8.45;;;1.80;;
35223;SDS011;21367;51.930;8.112;2022-07-29T08:37:56;10.90;;;1.98;;
35223;SDS011;21367;51.930;8.112;2022-07-29T08:43:03;7.43;;;1.85;;
35223;SDS011;21367;51.930;8.112;2022-07-29T08:48:08;7.97;;;1.80;;
35223;SDS011;21367;51.930;8.112;2022-07-29T08:53:15;11.25;;;1.85;;
35223;SDS011;21367;51.930;8.112;2022-07-29T08:58:19;12.43;;;2.22;;
35223;SDS011;21367;51.930;8.112;2022-07-29T09:03:25;7.07;;;1.93;;
35223;SDS011;21367;51.930;8.112;2022-07-29T09:08:38;11.95;;;2.33;;
35223;SDS011;21367;51.930;8.112;2022-07-29T09:13:42;13.45;;;1.80;;
35223;SDS011;21367;51.930;8.112;2022-07-29T09:18:47;5.88;;;1.77;;
35223;SDS011;21367;51.930;8.112;2022-07-29T09:24:03;7.93;;;1.92;;
35223;SDS011;21367;51.930;8.112;2022-07-29T09:29:10;9.15;;;1.80;;
35223;SDS011;21367;51.930;8.112;2022-07-29T09:34:16;16.10;;;1.80;;
35223;SDS011;21367;51.930;8.112;2022-07-29T09:39:31;11.02;;;1.58;;
35223;SDS011;21367;51.930;8.112;2022-07-29T09:44:40;12.73;;;2.20;;
35223;SDS011;21367;51.930;8.112;2022-07-29T09:49:53;10.35;;;2.13;;
35223;SDS011;21367;51.930;8.112;2022-07-29T09:55:07;9.93;;;1.70;;
35223;SDS011;21367;51.930;8.112;2022-07-29T10:00:13;9.07;;;1.80;;
35223;SDS011;21367;51.930;8.112;2022-07-29T10:05:19;9.93;;;1.75;;
35223;SDS011;21367;51.930;8.112;2022-07-29T10:15:32;6.13;;;1.95;;
35223;SDS011;21367;51.930;8.112;2022-07-29T10:20:39;15.07;;;2.15;;
35223;SDS011;21367;51.930;8.112;2022-07-29T10:25:45;14.07;;;2.10;;
35223;SDS011;21367;51.930;8.112;2022-07-29T10:30:50;8.95;;;1.85;;
35223;SDS011;21367;51.930;8.112;2022-07-29T10:36:04;12.13;;;1.98;;
35223;SDS011;21367;51.930;8.112;2022-07-29T10:46:57;6.10;;;2.00;;
35223;SDS011;21367;51.930;8.112;2022-07-29T10:52:05;7.72;;;1.90;;
35223;SDS011;21367;51.930;8.112;2022-07-29T10:57:15;11.73;;;1.90;;
35223;SDS011;21367;51.930;8.112;2022-07-29T11:13:46;10.73;;;2.03;;
35223;SDS011;21367;51.930;8.112;2022-07-29T11:24:27;9.35;;;2.00;;
35223;SDS011;21367;51.930;8.112;2022-07-29T11:29:32;14.07;;;2.10;;
35223;SDS011;21367;51.930;8.112;2022-07-29T11:34:45;7.78;;;2.20;;
35223;SDS011;21367;51.930;8.112;2022-07-29T11:45:13;17.88;;;2.10;;
35223;SDS011;21367;51.930;8.112;2022-07-29T11:50:35;6.10;;;1.80;;
35223;SDS011;21367;51.930;8.112;2022-07-29T11:55:40;15.45;;;3.92;;
35223;SDS011;21367;51.930;8.112;2022-07-29T12:00:45;10.95;;;2.50;;
35223;SDS011;21367;51.930;8.112;2022-07-29T12:05:52;9.35;;;1.98;;
35223;SDS011;21367;51.930;8.112;2022-07-29T12:10:56;7.95;;;2.05;;
35223;SDS011;21367;51.930;8.112;2022-07-29T12:16:00;9.82;;;2.05;;
35223;SDS011;21367;51.930;8.112;2022-07-29T12:21:06;8.45;;;2.10;;
35223;SDS011;21367;51.930;8.112;2022-07-29T12:26:10;9.02;;;2.33;;
35223;SDS011;21367;51.930;8.112;2022-07-29T12:31:14;7.20;;;2.28;;
35223;SDS011;21367;51.930;8.112;2022-07-29T12:36:21;11.63;;;2.20;;
35223;SDS011;21367;51.930;8.112;2022-07-29T12:41:27;8.30;;;3.40;;
35223;SDS011;21367;51.930;8.112;2022-07-29T12:46:31;9.10;;;2.25;;
35223;SDS011;21367;51.930;8.112;2022-07-29T12:51:38;18.02;;;2.70;;
35223;SDS011;21367;51.930;8.112;2022-07-29T12:56:44;14.35;;;2.65;;
35223;SDS011;21367;51.930;8.112;2022-07-29T13:01:48;8.25;;;2.00;;
35223;SDS011;21367;51.930;8.112;2022-07-29T13:07:02;12.60;;;2.30;;
35223;SDS011;21367;51.930;8.112;2022-07-29T13:12:09;16.77;;;2.60;;
35223;SDS011;21367;51.930;8.112;2022-07-29T13:17:15;20.75;;;2.70;;
35223;SDS011;21367;51.930;8.112;2022-07-29T13:22:23;8.60;;;1.88;;
35223;SDS011;21367;51.930;8.112;2022-07-29T13:27:28;8.73;;;2.58;;
35223;SDS011;21367;51.930;8.112;2022-07-29T13:37:40;12.63;;;2.42;;
35223;SDS011;21367;51.930;8.112;2022-07-29T13:42:44;15.45;;;2.28;;
35223;SDS011;21367;51.930;8.112;2022-07-29T13:47:47;19.25;;;2.58;;
35223;SDS011;21367;51.930;8.112;2022-07-29T13:52:54;16.85;;;2.83;;
35223;SDS011;21367;51.930;8.112;2022-07-29T13:57:58;14.95;;;2.53;;
35223;SDS011;21367;51.930;8.112;2022-07-29T14:03:02;18.35;;;2.22;;
35223;SDS011;21367;51.930;8.112;2022-07-29T14:08:09;16.38;;;2.30;;
35223;SDS011;21367;51.930;8.112;2022-07-29T14:13:14;8.02;;;2.33;;
35223;SDS011;21367;51.930;8.112;2022-07-29T14:18:18;15.30;;;2.60;;
35223;SDS011;21367;51.930;8.112;2022-07-29T14:23:25;11.45;;;2.42;;
35223;SDS011;21367;51.930;8.112;2022-07-29T14:28:29;14.23;;;2.60;;
35223;SDS011;21367;51.930;8.112;2022-07-29T14:33:32;17.75;;;2.50;;
35223;SDS011;21367;51.930;8.112;2022-07-29T14:38:38;9.80;;;2.83;;
35223;SDS011;21367;51.930;8.112;2022-07-29T14:43:43;13.50;;;3.22;;
35223;SDS011;21367;51.930;8.112;2022-07-29T14:48:47;18.02;;;3.70;;
35223;SDS011;21367;51.930;8.112;2022-07-29T14:53:53;15.15;;;3.67;;
35223;SDS011;21367;51.930;8.112;2022-07-29T14:58:57;13.35;;;4.00;;
35223;SDS011;21367;51.930;8.112;2022-07-29T15:04:01;14.57;;;3.83;;
35223;SDS011;21367;51.930;8.112;2022-07-29T15:09:08;17.85;;;4.03;;
35223;SDS011;21367;51.930;8.112;2022-07-29T15:14:12;14.15;;;3.95;;
35223;SDS011;21367;51.930;8.112;2022-07-29T15:19:16;9.68;;;3.53;;
35223;SDS011;21367;51.930;8.112;2022-07-29T15:24:22;15.05;;;4.22;;
35223;SDS011;21367;51.930;8.112;2022-07-29T15:29:27;10.77;;;3.92;;
35223;SDS011;21367;51.930;8.112;2022-07-29T15:34:34;11.98;;;4.53;;
35223;SDS011;21367;51.930;8.112;2022-07-29T15:39:40;12.88;;;3.00;;
35223;SDS011;21367;51.930;8.112;2022-07-29T15:44:44;9.18;;;2.88;;
35223;SDS011;21367;51.930;8.112;2022-07-29T15:49:47;14.35;;;3.03;;
35223;SDS011;21367;51.930;8.112;2022-07-29T15:54:55;9.45;;;3.33;;
35223;SDS011;21367;51.930;8.112;2022-07-29T15:59:59;8.65;;;2.50;;
35223;SDS011;21367;51.930;8.112;2022-07-29T16:05:08;7.05;;;2.85;;
35223;SDS011;21367;51.930;8.112;2022-07-29T16:10:15;10.93;;;2.75;;
35223;SDS011;21367;51.930;8.112;2022-07-29T16:15:18;7.28;;;2.67;;
35223;SDS011;21367;51.930;8.112;2022-07-29T16:20:22;5.07;;;2.65;;
35223;SDS011;21367;51.930;8.112;2022-07-29T16:25:28;9.48;;;2.63;;
35223;SDS011;21367;51.930;8.112;2022-07-29T16:30:32;8.55;;;3.15;;
35223;SDS011;21367;51.930;8.112;2022-07-29T16:35:36;8.50;;;3.70;;
35223;SDS011;21367;51.930;8.112;2022-07-29T16:40:43;4.82;;;2.45;;
35223;SDS011;21367;51.930;8.112;2022-07-29T16:45:47;9.65;;;2.63;;
35223;SDS011;21367;51.930;8.112;2022-07-29T16:50:51;14.48;;;2.70;;
35223;SDS011;21367;51.930;8.112;2022-07-29T16:55:58;7.50;;;2.97;;
35223;SDS011;21367;51.930;8.112;2022-07-29T17:01:01;7.43;;;2.88;;
35223;SDS011;21367;51.930;8.112;2022-07-29T17:06:05;12.82;;;2.97;;
35223;SDS011;21367;51.930;8.112;2022-07-29T17:11:12;4.55;;;2.45;;
35223;SDS011;21367;51.930;8.112;2022-07-29T17:16:16;10.85;;;2.60;;
35223;SDS011;21367;51.930;8.112;2022-07-29T17:21:24;4.72;;;2.30;;
35223;SDS011;21367;51.930;8.112;2022-07-29T17:26:30;9.07;;;3.17;;
35223;SDS011;21367;51.930;8.112;2022-07-29T17:31:34;13.57;;;3.33;;
35223;SDS011;21367;51.930;8.112;2022-07-29T17:36:38;12.07;;;2.72;;
35223;SDS011;21367;51.930;8.112;2022-07-29T17:41:45;10.35;;;2.58;;
35223;SDS011;21367;51.930;8.112;2022-07-29T17:46:49;9.35;;;3.13;;
35223;SDS011;21367;51.930;8.112;2022-07-29T17:51:53;6.68;;;3.00;;
35223;SDS011;21367;51.930;8.112;2022-07-29T17:56:59;7.40;;;3.20;;
35223;SDS011;21367;51.930;8.112;2022-07-29T18:02:03;9.65;;;2.72;;
35223;SDS011;21367;51.930;8.112;2022-07-29T18:07:07;5.80;;;2.97;;
35223;SDS011;21367;51.930;8.112;2022-07-29T18:12:13;13.20;;;3.03;;
35223;SDS011;21367;51.930;8.112;2022-07-29T18:17:17;7.90;;;3.25;;
35223;SDS011;21367;51.930;8.112;2022-07-29T18:22:21;6.22;;;2.88;;
35223;SDS011;21367;51.930;8.112;2022-07-29T18:27:27;9.15;;;3.70;;
35223;SDS011;21367;51.930;8.112;2022-07-29T18:32:31;12.55;;;2.90;;
35223;SDS011;21367;51.930;8.112;2022-07-29T18:37:34;13.77;;;3.50;;
35223;SDS011;21367;51.930;8.112;2022-07-29T18:42:41;15.25;;;3.70;;
35223;SDS011;21367;51.930;8.112;2022-07-29T18:47:44;8.05;;;3.72;;
35223;SDS011;21367;51.930;8.112;2022-07-29T18:52:48;12.32;;;3.63;;
35223;SDS011;21367;51.930;8.112;2022-07-29T18:57:55;7.75;;;3.03;;
35223;SDS011;21367;51.930;8.112;2022-07-29T19:02:59;9.60;;;3.42;;
35223;SDS011;21367;51.930;8.112;2022-07-29T19:08:02;9.15;;;3.40;;
35223;SDS011;21367;51.930;8.112;2022-07-29T19:13:09;8.35;;;3.20;;
35223;SDS011;21367;51.930;8.112;2022-07-29T19:18:12;12.80;;;3.42;;
35223;SDS011;21367;51.930;8.112;2022-07-29T19:23:16;8.05;;;3.67;;
35223;SDS011;21367;51.930;8.112;2022-07-29T19:28:23;9.48;;;2.95;;
35223;SDS011;21367;51.930;8.112;2022-07-29T19:33:27;9.07;;;2.97;;
35223;SDS011;21367;51.930;8.112;2022-07-29T19:38:31;11.10;;;2.88;;
35223;SDS011;21367;51.930;8.112;2022-07-29T19:43:37;9.07;;;3.08;;
35223;SDS011;21367;51.930;8.112;2022-07-29T19:48:41;9.15;;;3.45;;
35223;SDS011;21367;51.930;8.112;2022-07-29T19:53:45;6.20;;;3.13;;
35223;SDS011;21367;51.930;8.112;2022-07-29T19:58:51;9.05;;;3.35;;
35223;SDS011;21367;51.930;8.112;2022-07-29T20:03:55;10.15;;;3.80;;
35223;SDS011;21367;51.930;8.112;2022-07-29T20:08:59;19.10;;;6.18;;
35223;SDS011;21367;51.930;8.112;2022-07-29T20:14:06;21.17;;;7.30;;
35223;SDS011;21367;51.930;8.112;2022-07-29T20:19:10;18.05;;;6.43;;
35223;SDS011;21367;51.930;8.112;2022-07-29T20:24:13;10.82;;;5.00;;
35223;SDS011;21367;51.930;8.112;2022-07-29T20:29:20;21.85;;;6.03;;
35223;SDS011;21367;51.930;8.112;2022-07-29T20:34:25;14.90;;;5.57;;
35223;SDS011;21367;51.930;8.112;2022-07-29T20:39:28;12.55;;;5.25;;
35223;SDS011;21367;51.930;8.112;2022-07-29T20:44:35;16.58;;;5.07;;
35223;SDS011;21367;51.930;8.112;2022-07-29T20:49:39;14.00;;;6.03;;
35223;SDS011;21367;51.930;8.112;2022-07-29T20:54:43;28.52;;;12.93;;
35223;SDS011;21367;51.930;8.112;2022-07-29T20:59:49;25.95;;;11.13;;
35223;SDS011;21367;51.930;8.112;2022-07-29T21:04:53;25.33;;;10.63;;
35223;SDS011;21367;51.930;8.112;2022-07-29T21:09:57;26.02;;;10.02;;
35223;SDS011;21367;51.930;8.112;2022-07-29T21:15:04;23.42;;;10.60;;
35223;SDS011;21367;51.930;8.112;2022-07-29T21:20:12;24.30;;;9.52;;
35223;SDS011;21367;51.930;8.112;2022-07-29T21:25:18;25.40;;;9.55;;
35223;SDS011;21367;51.930;8.112;2022-07-29T21:30:24;20.05;;;9.10;;
35223;SDS011;21367;51.930;8.112;2022-07-29T21:35:28;17.70;;;8.63;;
35223;SDS011;21367;51.930;8.112;2022-07-29T21:40:32;20.25;;;8.70;;
35223;SDS011;21367;51.930;8.112;2022-07-29T21:45:38;19.50;;;9.35;;
35223;SDS011;21367;51.930;8.112;2022-07-29T21:50:43;20.65;;;9.00;;
35223;SDS011;21367;51.930;8.112;2022-07-29T21:55:47;22.70;;;9.73;;
35223;SDS011;21367;51.930;8.112;2022-07-29T22:00:56;22.05;;;10.45;;
35223;SDS011;21367;51.930;8.112;2022-07-29T22:06:00;36.50;;;17.02;;
35223;SDS011;21367;51.930;8.112;2022-07-29T22:11:03;32.90;;;15.23;;
35223;SDS011;21367;51.930;8.112;2022-07-29T22:16:09;20.33;;;10.55;;
35223;SDS011;21367;51.930;8.112;2022-07-29T22:21:15;25.92;;;11.15;;
35223;SDS011;21367;51.930;8.112;2022-07-29T22:26:19;21.05;;;10.65;;
35223;SDS011;21367;51.930;8.112;2022-07-29T22:31:25;21.23;;;10.20;;
35223;SDS011;21367;51.930;8.112;2022-07-29T22:36:29;22.38;;;10.07;;
35223;SDS011;21367;51.930;8.112;2022-07-29T22:41:33;18.15;;;9.48;;
35223;SDS011;21367;51.930;8.112;2022-07-29T22:46:40;22.75;;;9.57;;
35223;SDS011;21367;51.930;8.112;2022-07-29T22:51:43;19.38;;;9.20;;
35223;SDS011;21367;51.930;8.112;2022-07-29T22:56:47;18.02;;;8.82;;
35223;SDS011;21367;51.930;8.112;2022-07-29T23:01:54;13.85;;;8.43;;
35223;SDS011;21367;51.930;8.112;2022-07-29T23:06:58;15.48;;;8.77;;
35223;SDS011;21367;51.930;8.112;2022-07-29T23:12:02;23.77;;;9.05;;
35223;SDS011;21367;51.930;8.112;2022-07-29T23:17:09;13.65;;;9.10;;
35223;SDS011;21367;51.930;8.112;2022-07-29T23:22:12;18.52;;;9.45;;
35223;SDS011;21367;51.930;8.112;2022-07-29T23:27:16;18.48;;;9.05;;
35223;SDS011;21367;51.930;8.112;2022-07-29T23:32:23;12.32;;;8.20;;
35223;SDS011;21367;51.930;8.112;2022-07-29T23:37:26;16.83;;;9.93;;
35223;SDS011;21367;51.930;8.112;2022-07-29T23:42:30;20.98;;;10.02;;
35223;SDS011;21367;51.930;8.112;2022-07-29T23:47:37;15.55;;;10.07;;
35223;SDS011;21367;51.930;8.112;2022-07-29T23:52:41;18.02;;;9.55;;
35223;SDS011;21367;51.930;8.112;2022-07-29T23:57:46;16.05;;;9.90;;
